sensor_id;sensor_type;location;lat;lon;timestamp;P1;durP1;ratioP1;P2;durP2;ratioP2
18159;SDS011;9205;52.032;4.314;2023-02-18T00:00:06;16.40;;;6.27;;
18159;SDS011;9205;52.032;4.314;2023-02-18T00:02:42;14.97;;;5.70;;
18159;SDS011;9205;52.032;4.314;2023-02-18T00:05:14;17.63;;;6.23;;
18159;SDS011;9205;52.032;4.314;2023-02-18T00:07:49;22.23;;;6.67;;
18159;SDS011;9205;52.032;4.314;2023-02-18T00:10:21;19.00;;;6.60;;
18159;SDS011;9205;52.032;4.314;2023-02-18T00:12:52;14.33;;;5.30;;
18159;SDS011;9205;52.032;4.314;2023-02-18T00:15:23;17.53;;;5.77;;
18159;SDS011;9205;52.032;4.314;2023-02-18T00:17:54;14.77;;;6.03;;
18159;SDS011;9205;52.032;4.314;2023-02-18T00:20:27;16.97;;;5.90;;
18159;SDS011;9205;52.032;4.314;2023-02-18T00:23:02;16.97;;;5.87;;
18159;SDS011;9205;52.032;4.314;2023-02-18T00:25:32;18.90;;;6.03;;
18159;SDS011;9205;52.032;4.314;2023-02-18T00:28:03;15.17;;;6.03;;
18159;SDS011;9205;52.032;4.314;2023-02-18T00:30:33;22.53;;;7.20;;
18159;SDS011;9205;52.032;4.314;2023-02-18T00:33:08;21.60;;;7.20;;
18159;SDS011;9205;52.032;4.314;2023-02-18T00:35:38;14.53;;;6.20;;
18159;SDS011;9205;52.032;4.314;2023-02-18T00:38:11;16.30;;;6.43;;
18159;SDS011;9205;52.032;4.314;2023-02-18T00:40:43;19.10;;;6.87;;
18159;SDS011;9205;52.032;4.314;2023-02-18T00:43:15;14.03;;;6.43;;
18159;SDS011;9205;52.032;4.314;2023-02-18T00:45:46;18.63;;;6.97;;
18159;SDS011;9205;52.032;4.314;2023-02-18T00:48:17;17.80;;;7.03;;
18159;SDS011;9205;52.032;4.314;2023-02-18T00:50:46;18.20;;;6.90;;
18159;SDS011;9205;52.032;4.314;2023-02-18T00:53:20;19.23;;;7.43;;
18159;SDS011;9205;52.032;4.314;2023-02-18T00:55:52;17.57;;;6.90;;
18159;SDS011;9205;52.032;4.314;2023-02-18T00:58:24;16.30;;;6.70;;
18159;SDS011;9205;52.032;4.314;2023-02-18T01:00:58;14.60;;;6.30;;
18159;SDS011;9205;52.032;4.314;2023-02-18T01:03:30;18.00;;;6.60;;
18159;SDS011;9205;52.032;4.314;2023-02-18T01:06:01;17.20;;;6.07;;
18159;SDS011;9205;52.032;4.314;2023-02-18T01:08:36;14.50;;;6.53;;
18159;SDS011;9205;52.032;4.314;2023-02-18T01:11:09;15.80;;;6.07;;
18159;SDS011;9205;52.032;4.314;2023-02-18T01:13:42;14.53;;;6.50;;
18159;SDS011;9205;52.032;4.314;2023-02-18T01:16:14;19.00;;;5.63;;
18159;SDS011;9205;52.032;4.314;2023-02-18T01:18:45;13.93;;;6.03;;
18159;SDS011;9205;52.032;4.314;2023-02-18T01:21:15;14.27;;;6.60;;
18159;SDS011;9205;52.032;4.314;2023-02-18T01:23:48;13.70;;;6.00;;
18159;SDS011;9205;52.032;4.314;2023-02-18T01:26:19;18.00;;;7.50;;
18159;SDS011;9205;52.032;4.314;2023-02-18T01:28:49;17.37;;;6.73;;
18159;SDS011;9205;52.032;4.314;2023-02-18T01:31:21;13.67;;;6.50;;
18159;SDS011;9205;52.032;4.314;2023-02-18T01:33:50;12.80;;;6.10;;
18159;SDS011;9205;52.032;4.314;2023-02-18T01:36:21;15.00;;;6.17;;
18159;SDS011;9205;52.032;4.314;2023-02-18T01:38:57;13.57;;;6.37;;
18159;SDS011;9205;52.032;4.314;2023-02-18T01:41:27;14.37;;;6.47;;
18159;SDS011;9205;52.032;4.314;2023-02-18T01:44:11;13.67;;;5.40;;
18159;SDS011;9205;52.032;4.314;2023-02-18T01:46:45;14.47;;;5.80;;
18159;SDS011;9205;52.032;4.314;2023-02-18T01:49:18;13.70;;;5.83;;
18159;SDS011;9205;52.032;4.314;2023-02-18T01:51:54;16.20;;;5.80;;
18159;SDS011;9205;52.032;4.314;2023-02-18T01:54:32;14.90;;;5.27;;
18159;SDS011;9205;52.032;4.314;2023-02-18T01:57:08;15.13;;;5.90;;
18159;SDS011;9205;52.032;4.314;2023-02-18T01:59:43;14.17;;;5.20;;
18159;SDS011;9205;52.032;4.314;2023-02-18T02:02:21;15.33;;;5.93;;
18159;SDS011;9205;52.032;4.314;2023-02-18T02:04:53;15.70;;;6.13;;
18159;SDS011;9205;52.032;4.314;2023-02-18T02:07:27;14.70;;;5.93;;
18159;SDS011;9205;52.032;4.314;2023-02-18T02:10:00;12.87;;;5.40;;
18159;SDS011;9205;52.032;4.314;2023-02-18T02:12:39;13.33;;;5.53;;
18159;SDS011;9205;52.032;4.314;2023-02-18T02:15:29;13.13;;;5.30;;
18159;SDS011;9205;52.032;4.314;2023-02-18T02:18:17;14.67;;;6.03;;
18159;SDS011;9205;52.032;4.314;2023-02-18T02:21:13;16.17;;;5.87;;
18159;SDS011;9205;52.032;4.314;2023-02-18T02:24:20;13.90;;;5.23;;
18159;SDS011;9205;52.032;4.314;2023-02-18T02:27:24;14.67;;;5.80;;
18159;SDS011;9205;52.032;4.314;2023-02-18T02:30:32;12.70;;;5.40;;
18159;SDS011;9205;52.032;4.314;2023-02-18T02:36:52;17.27;;;5.53;;
18159;SDS011;9205;52.032;4.314;2023-02-18T02:39:33;12.57;;;5.30;;
18159;SDS011;9205;52.032;4.314;2023-02-18T02:42:16;12.13;;;5.10;;
18159;SDS011;9205;52.032;4.314;2023-02-18T02:45:04;15.77;;;5.60;;
18159;SDS011;9205;52.032;4.314;2023-02-18T02:47:47;12.30;;;5.50;;
18159;SDS011;9205;52.032;4.314;2023-02-18T02:50:31;11.27;;;5.67;;
18159;SDS011;9205;52.032;4.314;2023-02-18T02:53:15;13.20;;;5.03;;
18159;SDS011;9205;52.032;4.314;2023-02-18T02:55:55;8.20;;;4.17;;
18159;SDS011;9205;52.032;4.314;2023-02-18T02:58:28;12.13;;;4.73;;
18159;SDS011;9205;52.032;4.314;2023-02-18T03:01:09;8.83;;;4.10;;
18159;SDS011;9205;52.032;4.314;2023-02-18T03:07:24;10.77;;;4.70;;
18159;SDS011;9205;52.032;4.314;2023-02-18T03:10:37;13.77;;;3.87;;
18159;SDS011;9205;52.032;4.314;2023-02-18T03:13:35;17.00;;;4.40;;
18159;SDS011;9205;52.032;4.314;2023-02-18T03:16:34;7.63;;;3.40;;
18159;SDS011;9205;52.032;4.314;2023-02-18T03:19:18;8.93;;;3.43;;
18159;SDS011;9205;52.032;4.314;2023-02-18T03:21:59;6.63;;;2.80;;
18159;SDS011;9205;52.032;4.314;2023-02-18T03:24:40;8.07;;;3.40;;
18159;SDS011;9205;52.032;4.314;2023-02-18T03:27:17;9.53;;;3.00;;
18159;SDS011;9205;52.032;4.314;2023-02-18T03:29:56;8.20;;;3.10;;
18159;SDS011;9205;52.032;4.314;2023-02-18T03:32:41;11.33;;;3.60;;
18159;SDS011;9205;52.032;4.314;2023-02-18T03:35:16;6.83;;;3.47;;
18159;SDS011;9205;52.032;4.314;2023-02-18T03:37:52;7.57;;;3.73;;
18159;SDS011;9205;52.032;4.314;2023-02-18T03:40:31;7.97;;;3.60;;
18159;SDS011;9205;52.032;4.314;2023-02-18T03:43:01;5.63;;;2.97;;
18159;SDS011;9205;52.032;4.314;2023-02-18T03:45:34;9.70;;;4.03;;
18159;SDS011;9205;52.032;4.314;2023-02-18T03:48:08;8.70;;;3.70;;
18159;SDS011;9205;52.032;4.314;2023-02-18T03:50:39;11.43;;;4.37;;
18159;SDS011;9205;52.032;4.314;2023-02-18T03:53:15;14.83;;;4.57;;
18159;SDS011;9205;52.032;4.314;2023-02-18T03:55:48;7.87;;;3.77;;
18159;SDS011;9205;52.032;4.314;2023-02-18T03:58:20;10.33;;;4.40;;
18159;SDS011;9205;52.032;4.314;2023-02-18T04:00:57;9.57;;;4.37;;
18159;SDS011;9205;52.032;4.314;2023-02-18T04:03:29;10.83;;;5.20;;
18159;SDS011;9205;52.032;4.314;2023-02-18T04:05:59;11.77;;;4.77;;
18159;SDS011;9205;52.032;4.314;2023-02-18T04:08:31;10.83;;;4.17;;
18159;SDS011;9205;52.032;4.314;2023-02-18T04:11:06;9.57;;;3.97;;
18159;SDS011;9205;52.032;4.314;2023-02-18T04:13:39;14.57;;;5.23;;
18159;SDS011;9205;52.032;4.314;2023-02-18T04:16:10;12.37;;;4.50;;
18159;SDS011;9205;52.032;4.314;2023-02-18T04:18:42;13.13;;;5.00;;
18159;SDS011;9205;52.032;4.314;2023-02-18T04:21:15;11.73;;;3.97;;
18159;SDS011;9205;52.032;4.314;2023-02-18T04:23:47;12.10;;;4.20;;
18159;SDS011;9205;52.032;4.314;2023-02-18T04:26:21;13.20;;;4.83;;
18159;SDS011;9205;52.032;4.314;2023-02-18T04:28:56;12.60;;;4.50;;
18159;SDS011;9205;52.032;4.314;2023-02-18T04:31:29;11.93;;;4.50;;
18159;SDS011;9205;52.032;4.314;2023-02-18T04:34:03;16.53;;;4.50;;
18159;SDS011;9205;52.032;4.314;2023-02-18T04:36:34;12.20;;;4.33;;
18159;SDS011;9205;52.032;4.314;2023-02-18T04:39:07;19.77;;;5.00;;
18159;SDS011;9205;52.032;4.314;2023-02-18T04:41:41;12.67;;;4.30;;
18159;SDS011;9205;52.032;4.314;2023-02-18T04:44:12;13.63;;;4.90;;
18159;SDS011;9205;52.032;4.314;2023-02-18T04:46:45;11.20;;;4.10;;
18159;SDS011;9205;52.032;4.314;2023-02-18T04:49:20;11.63;;;4.83;;
18159;SDS011;9205;52.032;4.314;2023-02-18T04:51:53;10.30;;;3.33;;
18159;SDS011;9205;52.032;4.314;2023-02-18T04:54:27;14.30;;;4.57;;
18159;SDS011;9205;52.032;4.314;2023-02-18T04:57:03;14.90;;;5.10;;
18159;SDS011;9205;52.032;4.314;2023-02-18T04:59:37;9.77;;;4.50;;
18159;SDS011;9205;52.032;4.314;2023-02-18T05:02:10;10.87;;;4.20;;
18159;SDS011;9205;52.032;4.314;2023-02-18T05:04:45;9.43;;;3.97;;
18159;SDS011;9205;52.032;4.314;2023-02-18T05:07:19;12.30;;;4.20;;
18159;SDS011;9205;52.032;4.314;2023-02-18T05:09:51;10.10;;;3.77;;
18159;SDS011;9205;52.032;4.314;2023-02-18T05:12:25;8.63;;;4.03;;
18159;SDS011;9205;52.032;4.314;2023-02-18T05:14:56;11.13;;;4.00;;
18159;SDS011;9205;52.032;4.314;2023-02-18T05:17:30;12.73;;;3.50;;
18159;SDS011;9205;52.032;4.314;2023-02-18T05:20:01;13.90;;;4.57;;
18159;SDS011;9205;52.032;4.314;2023-02-18T05:22:35;13.07;;;4.17;;
18159;SDS011;9205;52.032;4.314;2023-02-18T05:25:08;12.83;;;3.97;;
18159;SDS011;9205;52.032;4.314;2023-02-18T05:27:42;8.63;;;3.93;;
18159;SDS011;9205;52.032;4.314;2023-02-18T05:30:16;9.20;;;4.30;;
18159;SDS011;9205;52.032;4.314;2023-02-18T05:32:51;13.10;;;4.90;;
18159;SDS011;9205;52.032;4.314;2023-02-18T05:35:25;13.67;;;3.77;;
18159;SDS011;9205;52.032;4.314;2023-02-18T05:37:56;11.07;;;3.60;;
18159;SDS011;9205;52.032;4.314;2023-02-18T05:40:31;16.33;;;4.40;;
18159;SDS011;9205;52.032;4.314;2023-02-18T05:43:06;10.97;;;4.20;;
18159;SDS011;9205;52.032;4.314;2023-02-18T05:45:38;13.47;;;5.20;;
18159;SDS011;9205;52.032;4.314;2023-02-18T05:48:08;9.87;;;4.07;;
18159;SDS011;9205;52.032;4.314;2023-02-18T05:50:42;12.90;;;4.90;;
18159;SDS011;9205;52.032;4.314;2023-02-18T05:53:14;15.20;;;4.23;;
18159;SDS011;9205;52.032;4.314;2023-02-18T05:55:46;16.30;;;4.20;;
18159;SDS011;9205;52.032;4.314;2023-02-18T05:58:19;19.43;;;5.33;;
18159;SDS011;9205;52.032;4.314;2023-02-18T06:00:51;15.83;;;4.07;;
18159;SDS011;9205;52.032;4.314;2023-02-18T06:03:22;20.73;;;5.10;;
18159;SDS011;9205;52.032;4.314;2023-02-18T06:05:53;18.03;;;4.57;;
18159;SDS011;9205;52.032;4.314;2023-02-18T06:08:28;18.60;;;4.67;;
18159;SDS011;9205;52.032;4.314;2023-02-18T06:11:02;12.37;;;3.67;;
18159;SDS011;9205;52.032;4.314;2023-02-18T06:13:37;17.03;;;3.80;;
18159;SDS011;9205;52.032;4.314;2023-02-18T06:16:10;18.83;;;4.37;;
18159;SDS011;9205;52.032;4.314;2023-02-18T06:18:43;17.50;;;4.27;;
18159;SDS011;9205;52.032;4.314;2023-02-18T06:21:15;14.13;;;4.23;;
18159;SDS011;9205;52.032;4.314;2023-02-18T06:23:46;10.83;;;3.13;;
18159;SDS011;9205;52.032;4.314;2023-02-18T06:26:16;12.60;;;3.90;;
18159;SDS011;9205;52.032;4.314;2023-02-18T06:28:47;14.23;;;3.13;;
18159;SDS011;9205;52.032;4.314;2023-02-18T06:31:19;17.40;;;3.90;;
18159;SDS011;9205;52.032;4.314;2023-02-18T06:33:50;12.63;;;3.13;;
18159;SDS011;9205;52.032;4.314;2023-02-18T06:36:23;9.50;;;2.50;;
18159;SDS011;9205;52.032;4.314;2023-02-18T06:38:54;13.23;;;2.57;;
18159;SDS011;9205;52.032;4.314;2023-02-18T06:41:24;13.53;;;3.13;;
18159;SDS011;9205;52.032;4.314;2023-02-18T06:43:54;11.90;;;2.80;;
18159;SDS011;9205;52.032;4.314;2023-02-18T06:46:26;14.57;;;2.73;;
18159;SDS011;9205;52.032;4.314;2023-02-18T06:48:57;8.53;;;2.33;;
18159;SDS011;9205;52.032;4.314;2023-02-18T06:51:27;13.30;;;2.30;;
18159;SDS011;9205;52.032;4.314;2023-02-18T06:53:57;8.57;;;2.30;;
18159;SDS011;9205;52.032;4.314;2023-02-18T06:56:26;16.03;;;2.80;;
18159;SDS011;9205;52.032;4.314;2023-02-18T06:58:57;10.73;;;2.20;;
18159;SDS011;9205;52.032;4.314;2023-02-18T07:01:25;12.20;;;2.23;;
18159;SDS011;9205;52.032;4.314;2023-02-18T07:03:53;16.10;;;2.23;;
18159;SDS011;9205;52.032;4.314;2023-02-18T07:06:22;12.13;;;2.10;;
18159;SDS011;9205;52.032;4.314;2023-02-18T07:08:51;15.63;;;2.80;;
18159;SDS011;9205;52.032;4.314;2023-02-18T07:11:24;11.20;;;1.70;;
18159;SDS011;9205;52.032;4.314;2023-02-18T07:13:59;12.17;;;2.87;;
18159;SDS011;9205;52.032;4.314;2023-02-18T07:16:31;9.70;;;2.27;;
18159;SDS011;9205;52.032;4.314;2023-02-18T07:19:03;19.50;;;2.97;;
18159;SDS011;9205;52.032;4.314;2023-02-18T07:21:36;17.20;;;3.03;;
18159;SDS011;9205;52.032;4.314;2023-02-18T07:24:06;10.23;;;1.93;;
18159;SDS011;9205;52.032;4.314;2023-02-18T07:26:36;12.93;;;2.63;;
18159;SDS011;9205;52.032;4.314;2023-02-18T07:29:09;14.73;;;2.90;;
18159;SDS011;9205;52.032;4.314;2023-02-18T07:31:42;12.23;;;2.33;;
18159;SDS011;9205;52.032;4.314;2023-02-18T07:34:13;23.37;;;3.37;;
18159;SDS011;9205;52.032;4.314;2023-02-18T07:36:44;12.77;;;1.80;;
18159;SDS011;9205;52.032;4.314;2023-02-18T07:39:18;9.23;;;2.23;;
18159;SDS011;9205;52.032;4.314;2023-02-18T07:41:48;6.97;;;1.87;;
18159;SDS011;9205;52.032;4.314;2023-02-18T07:44:24;12.43;;;2.20;;
18159;SDS011;9205;52.032;4.314;2023-02-18T07:46:56;11.33;;;2.70;;
18159;SDS011;9205;52.032;4.314;2023-02-18T07:49:28;16.03;;;2.40;;
18159;SDS011;9205;52.032;4.314;2023-02-18T07:51:57;13.33;;;2.93;;
18159;SDS011;9205;52.032;4.314;2023-02-18T07:54:29;13.30;;;2.30;;
18159;SDS011;9205;52.032;4.314;2023-02-18T07:57:05;12.93;;;1.80;;
18159;SDS011;9205;52.032;4.314;2023-02-18T07:59:38;6.63;;;2.17;;
18159;SDS011;9205;52.032;4.314;2023-02-18T08:02:12;18.23;;;2.23;;
18159;SDS011;9205;52.032;4.314;2023-02-18T08:04:47;6.97;;;1.77;;
18159;SDS011;9205;52.032;4.314;2023-02-18T08:07:19;15.43;;;3.03;;
18159;SDS011;9205;52.032;4.314;2023-02-18T08:09:52;9.30;;;2.00;;
18159;SDS011;9205;52.032;4.314;2023-02-18T08:12:22;11.37;;;2.13;;
18159;SDS011;9205;52.032;4.314;2023-02-18T08:14:55;12.00;;;2.23;;
18159;SDS011;9205;52.032;4.314;2023-02-18T08:17:26;21.33;;;2.47;;
18159;SDS011;9205;52.032;4.314;2023-02-18T08:19:55;15.53;;;2.13;;
18159;SDS011;9205;52.032;4.314;2023-02-18T08:22:26;17.33;;;3.10;;
18159;SDS011;9205;52.032;4.314;2023-02-18T08:24:56;16.50;;;2.27;;
18159;SDS011;9205;52.032;4.314;2023-02-18T08:27:27;13.83;;;2.23;;
18159;SDS011;9205;52.032;4.314;2023-02-18T08:29:59;17.63;;;2.87;;
18159;SDS011;9205;52.032;4.314;2023-02-18T08:32:30;10.30;;;1.93;;
18159;SDS011;9205;52.032;4.314;2023-02-18T08:35:02;15.63;;;2.53;;
18159;SDS011;9205;52.032;4.314;2023-02-18T08:37:33;10.23;;;2.20;;
18159;SDS011;9205;52.032;4.314;2023-02-18T08:40:05;15.27;;;3.10;;
18159;SDS011;9205;52.032;4.314;2023-02-18T08:42:38;8.17;;;2.00;;
18159;SDS011;9205;52.032;4.314;2023-02-18T08:45:11;15.27;;;2.37;;
18159;SDS011;9205;52.032;4.314;2023-02-18T08:47:40;8.37;;;2.20;;
18159;SDS011;9205;52.032;4.314;2023-02-18T08:50:12;8.17;;;2.73;;
18159;SDS011;9205;52.032;4.314;2023-02-18T08:52:45;21.70;;;3.57;;
18159;SDS011;9205;52.032;4.314;2023-02-18T08:55:16;15.57;;;2.53;;
18159;SDS011;9205;52.032;4.314;2023-02-18T08:57:51;8.67;;;1.87;;
18159;SDS011;9205;52.032;4.314;2023-02-18T09:00:26;17.20;;;2.23;;
18159;SDS011;9205;52.032;4.314;2023-02-18T09:02:58;12.07;;;2.20;;
18159;SDS011;9205;52.032;4.314;2023-02-18T09:05:30;14.43;;;2.27;;
18159;SDS011;9205;52.032;4.314;2023-02-18T09:08:03;9.80;;;1.90;;
18159;SDS011;9205;52.032;4.314;2023-02-18T09:10:34;13.47;;;2.57;;
18159;SDS011;9205;52.032;4.314;2023-02-18T09:13:07;11.80;;;1.90;;
18159;SDS011;9205;52.032;4.314;2023-02-18T09:15:42;14.03;;;2.03;;
18159;SDS011;9205;52.032;4.314;2023-02-18T09:18:15;7.97;;;1.73;;
18159;SDS011;9205;52.032;4.314;2023-02-18T09:20:47;9.27;;;2.13;;
18159;SDS011;9205;52.032;4.314;2023-02-18T09:23:19;10.13;;;1.77;;
18159;SDS011;9205;52.032;4.314;2023-02-18T09:25:53;9.17;;;2.17;;
18159;SDS011;9205;52.032;4.314;2023-02-18T09:28:27;8.67;;;1.83;;
18159;SDS011;9205;52.032;4.314;2023-02-18T09:31:04;9.37;;;2.23;;
18159;SDS011;9205;52.032;4.314;2023-02-18T09:33:37;13.83;;;2.00;;
18159;SDS011;9205;52.032;4.314;2023-02-18T09:36:10;12.97;;;2.67;;
18159;SDS011;9205;52.032;4.314;2023-02-18T09:38:42;20.03;;;2.87;;
18159;SDS011;9205;52.032;4.314;2023-02-18T09:41:14;9.83;;;1.80;;
18159;SDS011;9205;52.032;4.314;2023-02-18T09:43:56;20.97;;;2.13;;
18159;SDS011;9205;52.032;4.314;2023-02-18T09:46:33;14.80;;;1.87;;
18159;SDS011;9205;52.032;4.314;2023-02-18T09:49:13;14.77;;;1.87;;
18159;SDS011;9205;52.032;4.314;2023-02-18T09:51:49;12.30;;;1.97;;
18159;SDS011;9205;52.032;4.314;2023-02-18T09:54:20;5.80;;;1.80;;
18159;SDS011;9205;52.032;4.314;2023-02-18T09:56:52;12.57;;;1.80;;
18159;SDS011;9205;52.032;4.314;2023-02-18T09:59:23;13.67;;;2.20;;
18159;SDS011;9205;52.032;4.314;2023-02-18T10:01:53;13.40;;;2.60;;
18159;SDS011;9205;52.032;4.314;2023-02-18T10:04:22;16.17;;;2.00;;
18159;SDS011;9205;52.032;4.314;2023-02-18T10:06:57;12.43;;;2.07;;
18159;SDS011;9205;52.032;4.314;2023-02-18T10:09:29;5.10;;;1.37;;
18159;SDS011;9205;52.032;4.314;2023-02-18T10:12:03;14.10;;;1.80;;
18159;SDS011;9205;52.032;4.314;2023-02-18T10:14:40;14.60;;;2.43;;
18159;SDS011;9205;52.032;4.314;2023-02-18T10:17:14;10.77;;;1.77;;
18159;SDS011;9205;52.032;4.314;2023-02-18T10:19:45;6.60;;;1.27;;
18159;SDS011;9205;52.032;4.314;2023-02-18T10:22:14;6.83;;;1.47;;
18159;SDS011;9205;52.032;4.314;2023-02-18T10:24:45;7.10;;;1.50;;
18159;SDS011;9205;52.032;4.314;2023-02-18T10:27:22;9.87;;;1.37;;
18159;SDS011;9205;52.032;4.314;2023-02-18T10:29:53;4.07;;;1.60;;
18159;SDS011;9205;52.032;4.314;2023-02-18T10:32:26;11.80;;;1.83;;
18159;SDS011;9205;52.032;4.314;2023-02-18T10:35:04;12.03;;;2.40;;
18159;SDS011;9205;52.032;4.314;2023-02-18T10:37:52;8.13;;;1.33;;
18159;SDS011;9205;52.032;4.314;2023-02-18T10:40:33;4.17;;;1.20;;
18159;SDS011;9205;52.032;4.314;2023-02-18T10:43:14;5.07;;;1.30;;
18159;SDS011;9205;52.032;4.314;2023-02-18T10:45:57;5.87;;;1.40;;
18159;SDS011;9205;52.032;4.314;2023-02-18T10:51:47;16.23;;;1.77;;
18159;SDS011;9205;52.032;4.314;2023-02-18T10:54:22;8.67;;;2.00;;
18159;SDS011;9205;52.032;4.314;2023-02-18T10:56:52;6.07;;;1.43;;
18159;SDS011;9205;52.032;4.314;2023-02-18T10:59:31;4.10;;;1.77;;
18159;SDS011;9205;52.032;4.314;2023-02-18T11:01:59;5.97;;;1.60;;
18159;SDS011;9205;52.032;4.314;2023-02-18T11:04:35;4.50;;;1.40;;
18159;SDS011;9205;52.032;4.314;2023-02-18T11:07:11;11.80;;;2.17;;
18159;SDS011;9205;52.032;4.314;2023-02-18T11:09:45;9.23;;;1.43;;
18159;SDS011;9205;52.032;4.314;2023-02-18T11:12:16;6.73;;;1.63;;
18159;SDS011;9205;52.032;4.314;2023-02-18T11:15:02;9.23;;;2.07;;
18159;SDS011;9205;52.032;4.314;2023-02-18T11:17:43;5.37;;;1.50;;
18159;SDS011;9205;52.032;4.314;2023-02-18T11:20:25;7.13;;;1.50;;
18159;SDS011;9205;52.032;4.314;2023-02-18T11:23:12;7.50;;;1.83;;
18159;SDS011;9205;52.032;4.314;2023-02-18T11:25:52;8.87;;;1.97;;
18159;SDS011;9205;52.032;4.314;2023-02-18T11:28:27;7.80;;;1.80;;
18159;SDS011;9205;52.032;4.314;2023-02-18T11:31:14;9.67;;;1.80;;
18159;SDS011;9205;52.032;4.314;2023-02-18T11:33:52;6.50;;;1.80;;
18159;SDS011;9205;52.032;4.314;2023-02-18T11:36:31;7.13;;;1.70;;
18159;SDS011;9205;52.032;4.314;2023-02-18T11:39:03;3.93;;;1.63;;
18159;SDS011;9205;52.032;4.314;2023-02-18T11:41:47;15.30;;;2.03;;
18159;SDS011;9205;52.032;4.314;2023-02-18T11:44:26;6.93;;;1.33;;
18159;SDS011;9205;52.032;4.314;2023-02-18T11:47:01;3.77;;;1.60;;
18159;SDS011;9205;52.032;4.314;2023-02-18T11:49:33;8.47;;;1.50;;
18159;SDS011;9205;52.032;4.314;2023-02-18T11:52:13;7.40;;;1.90;;
18159;SDS011;9205;52.032;4.314;2023-02-18T11:54:58;3.13;;;1.40;;
18159;SDS011;9205;52.032;4.314;2023-02-18T11:57:32;3.27;;;1.07;;
18159;SDS011;9205;52.032;4.314;2023-02-18T12:00:06;5.90;;;1.17;;
18159;SDS011;9205;52.032;4.314;2023-02-18T12:02:50;4.93;;;1.37;;
18159;SDS011;9205;52.032;4.314;2023-02-18T12:05:22;4.23;;;1.37;;
18159;SDS011;9205;52.032;4.314;2023-02-18T12:07:57;6.83;;;1.47;;
18159;SDS011;9205;52.032;4.314;2023-02-18T12:10:35;8.47;;;2.13;;
18159;SDS011;9205;52.032;4.314;2023-02-18T12:13:16;8.47;;;1.57;;
18159;SDS011;9205;52.032;4.314;2023-02-18T12:15:56;3.70;;;1.33;;
18159;SDS011;9205;52.032;4.314;2023-02-18T12:21:46;7.17;;;1.37;;
18159;SDS011;9205;52.032;4.314;2023-02-18T12:24:34;8.60;;;1.77;;
18159;SDS011;9205;52.032;4.314;2023-02-18T12:27:27;7.53;;;1.30;;
18159;SDS011;9205;52.032;4.314;2023-02-18T12:30:20;6.63;;;1.40;;
18159;SDS011;9205;52.032;4.314;2023-02-18T12:33:11;5.43;;;1.57;;
18159;SDS011;9205;52.032;4.314;2023-02-18T12:36:00;5.47;;;1.47;;
18159;SDS011;9205;52.032;4.314;2023-02-18T12:38:49;1.80;;;1.20;;
18159;SDS011;9205;52.032;4.314;2023-02-18T12:41:40;4.07;;;1.20;;
18159;SDS011;9205;52.032;4.314;2023-02-18T12:44:29;4.07;;;1.20;;
18159;SDS011;9205;52.032;4.314;2023-02-18T12:47:14;5.57;;;1.40;;
18159;SDS011;9205;52.032;4.314;2023-02-18T12:53:16;6.77;;;1.60;;
18159;SDS011;9205;52.032;4.314;2023-02-18T12:59:32;6.10;;;1.23;;
18159;SDS011;9205;52.032;4.314;2023-02-18T13:02:38;6.37;;;1.67;;
18159;SDS011;9205;52.032;4.314;2023-02-18T13:05:27;5.40;;;1.50;;
18159;SDS011;9205;52.032;4.314;2023-02-18T13:08:17;6.63;;;1.83;;
18159;SDS011;9205;52.032;4.314;2023-02-18T13:11:09;12.30;;;1.70;;
18159;SDS011;9205;52.032;4.314;2023-02-18T13:13:57;3.07;;;1.20;;
18159;SDS011;9205;52.032;4.314;2023-02-18T13:16:37;6.73;;;1.50;;
18159;SDS011;9205;52.032;4.314;2023-02-18T13:19:15;3.20;;;1.20;;
18159;SDS011;9205;52.032;4.314;2023-02-18T13:21:51;3.23;;;1.30;;
18159;SDS011;9205;52.032;4.314;2023-02-18T13:24:28;8.80;;;1.83;;
18159;SDS011;9205;52.032;4.314;2023-02-18T13:27:04;6.20;;;1.60;;
18159;SDS011;9205;52.032;4.314;2023-02-18T13:29:46;9.37;;;1.97;;
18159;SDS011;9205;52.032;4.314;2023-02-18T13:32:23;3.47;;;1.97;;
18159;SDS011;9205;52.032;4.314;2023-02-18T13:35:14;5.53;;;1.50;;
18159;SDS011;9205;52.032;4.314;2023-02-18T13:37:54;8.57;;;1.50;;
18159;SDS011;9205;52.032;4.314;2023-02-18T13:40:39;4.63;;;1.80;;
18159;SDS011;9205;52.032;4.314;2023-02-18T13:43:19;6.90;;;1.60;;
18159;SDS011;9205;52.032;4.314;2023-02-18T13:46:03;5.90;;;1.27;;
18159;SDS011;9205;52.032;4.314;2023-02-18T13:48:42;5.53;;;1.83;;
18159;SDS011;9205;52.032;4.314;2023-02-18T13:51:17;4.33;;;1.50;;
18159;SDS011;9205;52.032;4.314;2023-02-18T13:54:00;2.20;;;1.17;;
18159;SDS011;9205;52.032;4.314;2023-02-18T13:56:44;4.00;;;1.40;;
18159;SDS011;9205;52.032;4.314;2023-02-18T13:59:22;4.53;;;1.30;;
18159;SDS011;9205;52.032;4.314;2023-02-18T14:02:28;6.03;;;1.23;;
18159;SDS011;9205;52.032;4.314;2023-02-18T14:05:19;4.60;;;1.47;;
18159;SDS011;9205;52.032;4.314;2023-02-18T14:07:52;5.13;;;1.10;;
18159;SDS011;9205;52.032;4.314;2023-02-18T14:13:37;6.33;;;1.57;;
18159;SDS011;9205;52.032;4.314;2023-02-18T14:16:12;7.80;;;1.73;;
18159;SDS011;9205;52.032;4.314;2023-02-18T14:18:56;4.23;;;1.67;;
18159;SDS011;9205;52.032;4.314;2023-02-18T14:21:36;8.43;;;1.80;;
18159;SDS011;9205;52.032;4.314;2023-02-18T14:24:10;18.30;;;2.40;;
18159;SDS011;9205;52.032;4.314;2023-02-18T14:27:06;4.80;;;1.40;;
18159;SDS011;9205;52.032;4.314;2023-02-18T14:29:43;14.47;;;1.60;;
18159;SDS011;9205;52.032;4.314;2023-02-18T14:32:15;3.93;;;1.20;;
18159;SDS011;9205;52.032;4.314;2023-02-18T14:35:11;7.17;;;1.70;;
18159;SDS011;9205;52.032;4.314;2023-02-18T14:44:07;8.00;;;1.57;;
18159;SDS011;9205;52.032;4.314;2023-02-18T14:47:15;4.37;;;1.40;;
18159;SDS011;9205;52.032;4.314;2023-02-18T14:49:56;7.40;;;1.80;;
18159;SDS011;9205;52.032;4.314;2023-02-18T14:52:33;4.57;;;1.43;;
18159;SDS011;9205;52.032;4.314;2023-02-18T14:55:18;5.47;;;1.57;;
18159;SDS011;9205;52.032;4.314;2023-02-18T14:57:54;6.97;;;2.13;;
18159;SDS011;9205;52.032;4.314;2023-02-18T15:00:33;7.20;;;1.23;;
18159;SDS011;9205;52.032;4.314;2023-02-18T15:03:10;6.33;;;1.60;;
18159;SDS011;9205;52.032;4.314;2023-02-18T15:05:44;8.57;;;1.77;;
18159;SDS011;9205;52.032;4.314;2023-02-18T15:08:17;9.23;;;1.97;;
18159;SDS011;9205;52.032;4.314;2023-02-18T15:10:49;10.27;;;1.67;;
18159;SDS011;9205;52.032;4.314;2023-02-18T15:13:26;6.20;;;1.60;;
18159;SDS011;9205;52.032;4.314;2023-02-18T15:15:58;7.37;;;2.10;;
18159;SDS011;9205;52.032;4.314;2023-02-18T15:18:33;5.33;;;1.57;;
18159;SDS011;9205;52.032;4.314;2023-02-18T15:21:07;6.83;;;1.37;;
18159;SDS011;9205;52.032;4.314;2023-02-18T15:23:47;7.37;;;1.90;;
18159;SDS011;9205;52.032;4.314;2023-02-18T15:26:17;8.07;;;1.90;;
18159;SDS011;9205;52.032;4.314;2023-02-18T15:28:53;8.70;;;1.87;;
18159;SDS011;9205;52.032;4.314;2023-02-18T15:31:29;5.57;;;1.57;;
18159;SDS011;9205;52.032;4.314;2023-02-18T15:34:12;9.20;;;1.90;;
18159;SDS011;9205;52.032;4.314;2023-02-18T15:37:01;7.20;;;1.57;;
18159;SDS011;9205;52.032;4.314;2023-02-18T15:39:33;10.70;;;2.10;;
18159;SDS011;9205;52.032;4.314;2023-02-18T15:42:10;8.87;;;1.73;;
18159;SDS011;9205;52.032;4.314;2023-02-18T15:44:51;11.33;;;1.87;;
18159;SDS011;9205;52.032;4.314;2023-02-18T15:47:23;7.87;;;1.60;;
18159;SDS011;9205;52.032;4.314;2023-02-18T15:49:52;9.83;;;2.10;;
18159;SDS011;9205;52.032;4.314;2023-02-18T15:52:25;8.80;;;1.60;;
18159;SDS011;9205;52.032;4.314;2023-02-18T15:54:59;13.63;;;2.07;;
18159;SDS011;9205;52.032;4.314;2023-02-18T15:57:32;4.77;;;1.67;;
18159;SDS011;9205;52.032;4.314;2023-02-18T16:00:10;10.40;;;1.90;;
18159;SDS011;9205;52.032;4.314;2023-02-18T16:02:50;8.57;;;1.80;;
18159;SDS011;9205;52.032;4.314;2023-02-18T16:05:24;5.10;;;1.80;;
18159;SDS011;9205;52.032;4.314;2023-02-18T16:07:57;9.93;;;2.03;;
18159;SDS011;9205;52.032;4.314;2023-02-18T16:10:40;8.30;;;1.83;;
18159;SDS011;9205;52.032;4.314;2023-02-18T16:13:16;10.30;;;1.90;;
18159;SDS011;9205;52.032;4.314;2023-02-18T16:15:46;6.07;;;1.60;;